Time;durP1;ratioP1;P1;durP2;ratioP2;P2;SDS_P1;SDS_P2;PMS_P1;PMS_P2;Temp;Humidity;BMP_temperature;BMP_pressure;BME280_temperature;BME280_humidity;BME280_pressure;Samples;Min_cycle;Max_cycle;Signal;HPM_P1;HPM_P2
2022/01/06 00:01:48;;;;;;;23.22;5.95;;;;;;;1.16;100.00;97591.50;2144792;83;21003;-62
2022/01/06 00:04:48;;;;;;;21.87;5.35;;;;;;;1.15;100.00;97601.00;2144800;83;21554;-61
2022/01/06 00:07:49;;;;;;;25.25;6.55;;;;;;;1.17;100.00;97593.19;2144723;83;21498;-62
2022/01/06 00:10:50;;;;;;;26.33;7.00;;;;;;;1.18;100.00;97565.17;2139929;83;20994;-62
2022/01/06 00:25:57;;;;;;;24.85;6.45;;;;;;;1.15;100.00;97580.77;2110107;83;20965;-62
2022/01/06 00:28:58;;;;;;;22.65;6.20;;;;;;;1.14;100.00;97581.70;2138021;83;21018;-62
2022/01/06 00:31:58;;;;;;;22.75;6.08;;;;;;;1.12;100.00;97587.36;2137917;83;21032;-61
2022/01/06 00:34:59;;;;;;;22.65;6.28;;;;;;;1.09;100.00;97594.78;2138182;83;21059;-62
2022/01/06 00:37:59;;;;;;;22.67;5.92;;;;;;;1.10;100.00;97596.94;2138310;83;20988;-62
2022/01/06 00:41:00;;;;;;;23.42;6.17;;;;;;;1.11;100.00;97589.58;2138251;83;21021;-62
2022/01/06 00:44:02;;;;;;;;;;;;;;;1.11;100.00;97583.95;2112172;83;21049;-62
2022/01/06 00:47:04;;;;;;;22.25;5.92;;;;;;;1.10;100.00;97595.64;2138164;83;20423;-62
2022/01/06 00:50:05;;;;;;;20.32;4.92;;;;;;;1.02;100.00;97590.34;2138401;83;20965;-62
2022/01/06 00:53:05;;;;;;;20.60;5.30;;;;;;;0.96;100.00;97602.66;2138293;83;20953;-62
2022/01/06 00:56:06;;;;;;;21.93;5.75;;;;;;;0.97;100.00;97601.77;2138147;83;21022;-62
2022/01/06 00:59:06;;;;;;;21.52;4.67;;;;;;;1.00;100.00;97606.34;2138136;83;21052;-62
2022/01/06 01:02:06;;;;;;;19.45;5.00;;;;;;;0.99;100.00;97600.81;2138197;83;21463;-62
2022/01/06 01:05:07;;;;;;;24.63;5.95;;;;;;;1.01;100.00;97592.53;2138486;83;20968;-62
2022/01/06 01:08:08;;;;;;;20.65;4.70;;;;;;;1.03;100.00;97595.05;2137705;83;21136;-61
2022/01/06 01:11:09;;;;;;;21.17;5.53;;;;;;;1.05;100.00;97599.72;2142917;83;21059;-62
2022/01/06 01:17:15;;;;;;;19.98;5.22;;;;;;;1.04;100.00;97593.69;2118778;83;20969;-62
2022/01/06 01:20:15;;;;;;;21.62;5.03;;;;;;;1.03;100.00;97603.66;2118798;83;21000;-62
2022/01/06 01:23:15;;;;;;;18.85;4.75;;;;;;;1.02;100.00;97606.27;2144973;83;21099;-62
2022/01/06 01:26:16;;;;;;;22.00;4.85;;;;;;;1.03;100.00;97606.67;2144845;83;20988;-62
2022/01/06 01:29:18;;;;;;;20.68;4.90;;;;;;;1.06;100.00;97609.13;2144893;83;20991;-62
2022/01/06 01:32:26;;;;;;;16.35;4.05;;;;;;;1.10;100.00;97609.38;2118727;83;21051;-62
2022/01/06 01:35:21;;;;;;;19.10;5.00;;;;;;;1.10;100.00;97621.47;2118742;83;21036;-62
2022/01/06 01:38:21;;;;;;;19.98;5.17;;;;;;;1.10;100.00;97620.18;2144690;83;21047;-62
2022/01/06 01:41:21;;;;;;;19.65;5.10;;;;;;;1.10;100.00;97623.59;2144844;83;20999;-62
2022/01/06 01:44:22;;;;;;;22.77;5.42;;;;;;;1.11;100.00;97605.08;2144891;83;21003;-62
2022/01/06 01:50:25;;;;;;;19.70;4.90;;;;;;;1.09;100.00;97608.16;2119098;83;20961;-62
2022/01/06 01:53:26;;;;;;;23.67;6.47;;;;;;;1.09;100.00;97608.16;2145002;82;20999;-62
2022/01/06 01:56:26;;;;;;;22.17;5.97;;;;;;;1.07;100.00;97612.56;2144790;83;21019;-62
2022/01/06 01:59:27;;;;;;;21.23;5.60;;;;;;;1.03;100.00;97612.70;2144843;83;21519;-62
2022/01/06 02:02:28;;;;;;;23.95;5.58;;;;;;;1.03;100.00;97604.09;2144863;83;20956;-62
2022/01/06 02:05:29;;;;;;;20.35;4.87;;;;;;;1.02;100.00;97593.36;2144829;83;21123;-62
2022/01/06 02:08:31;;;;;;;22.42;5.83;;;;;;;1.00;100.00;97600.34;2144879;83;20957;-62
2022/01/06 02:11:32;;;;;;;23.52;5.95;;;;;;;0.97;100.00;97600.02;2139717;83;21020;-62
2022/01/06 02:14:34;;;;;;;22.30;5.10;;;;;;;0.94;100.00;97598.86;2137845;83;21159;-62
2022/01/06 02:17:36;;;;;;;23.32;5.15;;;;;;;0.89;100.00;97599.52;2138281;83;21000;-61
2022/01/06 02:20:37;;;;;;;24.47;5.57;;;;;;;0.86;100.00;97604.35;2138345;83;21088;-62
2022/01/06 02:23:37;;;;;;;23.55;5.65;;;;;;;0.83;100.00;97604.91;2138152;83;21491;-61
2022/01/06 02:26:38;;;;;;;19.05;5.10;;;;;;;0.81;100.00;97604.16;2137940;83;21023;-61
2022/01/06 02:29:38;;;;;;;22.22;5.53;;;;;;;0.83;100.00;97610.08;2138133;83;20992;-61
2022/01/06 02:32:39;;;;;;;21.25;5.30;;;;;;;0.82;100.00;97620.87;2138039;83;21074;-61
2022/01/06 02:35:39;;;;;;;24.02;5.58;;;;;;;0.81;100.00;97611.89;2138112;83;21044;-62
2022/01/06 02:38:39;;;;;;;23.40;5.75;;;;;;;0.78;100.00;97622.35;2137984;83;20996;-62
2022/01/06 02:41:40;;;;;;;23.38;6.25;;;;;;;0.76;100.00;97631.88;2138130;83;21517;-62
2022/01/06 02:44:40;;;;;;;19.25;4.67;;;;;;;0.76;100.00;97631.45;2138234;83;20983;-61
2022/01/06 02:47:41;;;;;;;22.42;5.08;;;;;;;0.81;100.00;97632.55;2138313;83;20985;-62
2022/01/06 02:50:41;;;;;;;23.05;5.20;;;;;;;0.85;100.00;97637.98;2138160;82;20983;-62
2022/01/06 02:53:42;;;;;;;19.90;4.62;;;;;;;0.89;100.00;97629.21;2138086;83;21044;-61
2022/01/06 02:56:43;;;;;;;21.02;5.00;;;;;;;0.94;100.00;97639.34;2138116;83;21056;-62
2022/01/06 02:59:43;;;;;;;20.75;5.37;;;;;;;0.96;100.00;97637.09;2137940;83;21589;-62
2022/01/06 03:02:46;;;;;;;22.13;5.10;;;;;;;1.01;100.00;97645.94;2138352;83;20968;-62
2022/01/06 03:05:46;;;;;;;21.62;5.12;;;;;;;1.03;100.00;97644.98;2110557;83;21035;-62
2022/01/06 03:08:47;;;;;;;23.57;5.35;;;;;;;1.06;100.00;97630.24;2138132;83;20953;-62
2022/01/06 03:11:48;;;;;;;21.57;4.90;;;;;;;1.06;100.00;97649.16;2142727;83;21032;-62
2022/01/06 03:14:48;;;;;;;19.67;5.15;;;;;;;1.09;100.00;97652.89;2144458;83;21515;-61
2022/01/06 03:17:49;;;;;;;20.80;4.62;;;;;;;1.12;100.00;97645.05;2144791;83;21475;-61
2022/01/06 03:20:49;;;;;;;23.18;5.92;;;;;;;1.16;100.00;97653.02;2144923;83;21000;-62
2022/01/06 03:23:50;;;;;;;23.77;5.15;;;;;;;1.19;100.00;97651.63;2145048;83;21018;-61
2022/01/06 03:26:50;;;;;;;18.82;4.50;;;;;;;1.17;100.00;97640.51;2144762;83;21031;-61
2022/01/06 03:29:50;;;;;;;22.85;5.20;;;;;;;1.17;100.00;97650.84;2144795;83;20976;-62
2022/01/06 03:32:51;;;;;;;18.35;4.25;;;;;;;1.19;100.00;97651.63;2144523;83;21515;-62
2022/01/06 03:35:52;;;;;;;21.70;4.67;;;;;;;1.19;100.00;97666.27;2144678;83;21066;-61
2022/01/06 03:38:52;;;;;;;23.12;4.72;;;;;;;1.22;100.00;97660.97;2144817;83;21054;-62
2022/01/06 03:41:53;;;;;;;17.57;4.50;;;;;;;1.23;100.00;97666.53;2145016;83;21501;-61
2022/01/06 03:44:55;;;;;;;20.20;4.50;;;;;;;1.25;100.00;97674.22;2144895;83;21070;-62
2022/01/06 03:47:55;;;;;;;16.85;4.37;;;;;;;1.26;100.00;97672.86;2144912;83;21031;-61
2022/01/06 03:50:56;;;;;;;24.63;4.87;;;;;;;1.27;100.00;97689.23;2144807;83;21036;-61
2022/01/06 03:53:56;;;;;;;17.62;4.08;;;;;;;1.27;100.00;97686.64;2144762;83;21039;-62
2022/01/06 03:56:58;;;;;;;20.17;4.55;;;;;;;1.27;100.00;97682.30;2144296;83;21507;-61
2022/01/06 03:59:59;;;;;;;19.15;4.33;;;;;;;1.28;100.00;97696.05;2144948;83;20984;-62
2022/01/06 04:03:00;;;;;;;15.68;4.12;;;;;;;1.29;100.00;97685.65;2144754;83;21008;-62
2022/01/06 04:06:03;;;;;;;21.75;4.78;;;;;;;1.31;100.00;97691.61;2144788;83;21451;-62
2022/01/06 04:09:03;;;;;;;22.20;4.55;;;;;;;1.29;100.00;97689.52;2118572;83;21107;-61
2022/01/06 04:12:04;;;;;;;17.73;4.08;;;;;;;1.29;100.00;97683.06;2144825;83;21618;-62
2022/01/06 04:15:04;;;;;;;16.05;3.98;;;;;;;1.29;100.00;97675.77;2144673;83;21103;-61
2022/01/06 04:18:05;;;;;;;14.50;3.75;;;;;;;1.29;100.00;97674.02;2144800;83;21019;-62
2022/01/06 04:21:07;;;;;;;15.85;3.60;;;;;;;1.27;100.00;97682.30;2145023;83;21032;-62
2022/01/06 04:24:07;;;;;;;17.90;3.70;;;;;;;1.28;100.00;97682.70;2144682;83;21124;-62
2022/01/06 04:27:07;;;;;;;17.45;4.08;;;;;;;1.31;100.00;97681.27;2144449;83;21502;-62
2022/01/06 04:30:08;;;;;;;19.42;3.83;;;;;;;1.34;100.00;97696.64;2144758;83;21023;-62
2022/01/06 04:33:09;;;;;;;16.52;4.00;;;;;;;1.36;100.00;97676.73;2144921;83;20999;-62
2022/01/06 04:36:09;;;;;;;16.65;4.30;;;;;;;1.36;100.00;97686.24;2144876;83;20987;-62
2022/01/06 04:39:10;;;;;;;16.55;4.30;;;;;;;1.36;100.00;97679.78;2144745;83;21089;-62
2022/01/06 04:42:11;;;;;;;16.97;4.03;;;;;;;1.34;100.00;97672.09;2144659;83;21502;-62
2022/01/06 04:45:11;;;;;;;19.27;4.25;;;;;;;1.31;100.00;97678.69;2144632;83;21046;-62
2022/01/06 04:48:11;;;;;;;16.97;4.10;;;;;;;1.28;100.00;97681.41;2144896;83;20976;-62
2022/01/06 04:51:12;;;;;;;14.35;3.92;;;;;;;1.25;100.00;97674.22;2144540;83;21023;-62
2022/01/06 04:54:12;;;;;;;13.68;3.67;;;;;;;1.20;100.00;97680.88;2144663;82;21023;-61
2022/01/06 04:57:13;;;;;;;15.55;4.25;;;;;;;1.18;100.00;97690.45;2144729;83;21486;-62
2022/01/06 05:00:13;;;;;;;15.55;3.47;;;;;;;1.18;100.00;97690.45;2144661;83;21020;-61
2022/01/06 05:03:14;;;;;;;17.10;4.50;;;;;;;1.18;100.00;97700.78;2144851;83;20971;-62
2022/01/06 05:06:15;;;;;;;19.50;4.05;;;;;;;1.20;100.00;97705.41;2144957;83;20983;-62
2022/01/06 05:09:15;;;;;;;15.10;4.10;;;;;;;1.23;100.00;97702.70;2144694;83;20991;-62
2022/01/06 05:12:16;;;;;;;17.52;3.90;;;;;;;1.27;100.00;97702.14;2139702;83;21108;-62
2022/01/06 05:15:16;;;;;;;19.30;4.30;;;;;;;1.27;100.00;97698.27;2137521;83;20989;-62
2022/01/06 05:18:17;;;;;;;14.47;4.25;;;;;;;1.29;100.00;97708.07;2137961;83;21043;-62
2022/01/06 05:21:18;;;;;;;17.32;4.28;;;;;;;1.30;100.00;97704.59;2138182;83;20980;-62
2022/01/06 05:24:19;;;;;;;13.62;3.30;;;;;;;1.30;100.00;97714.92;2138135;83;21044;-62
2022/01/06 05:27:19;;;;;;;17.00;3.95;;;;;;;1.29;100.00;97720.98;2138214;83;21471;-62
2022/01/06 05:30:20;;;;;;;17.45;4.12;;;;;;;1.31;100.00;97716.62;2138039;83;20976;-61
2022/01/06 05:33:20;;;;;;;15.28;3.80;;;;;;;1.31;100.00;97726.48;2138399;83;21012;-62
2022/01/06 05:36:20;;;;;;;14.07;3.42;;;;;;;1.34;100.00;97720.36;2138405;83;20984;-62
2022/01/06 05:39:21;;;;;;;15.55;3.70;;;;;;;1.38;100.00;97723.21;2138157;83;20970;-62
2022/01/06 05:42:21;;;;;;;16.05;4.15;;;;;;;1.39;100.00;97739.08;2138088;83;21036;-62
2022/01/06 05:45:22;;;;;;;18.30;4.35;;;;;;;1.38;100.00;97740.01;2138177;83;21447;-62
2022/01/06 05:48:23;;;;;;;14.95;4.25;;;;;;;1.38;100.00;97739.55;2138341;83;21062;-62
2022/01/06 05:51:23;;;;;;;17.98;4.28;;;;;;;1.38;100.00;97742.59;2138116;83;20980;-61
2022/01/06 05:54:23;;;;;;;17.30;4.10;;;;;;;1.38;100.00;97741.30;2138181;83;21003;-62
2022/01/06 05:57:24;;;;;;;18.35;4.42;;;;;;;1.40;100.00;97747.70;2138130;83;20972;-62
2022/01/06 06:00:24;;;;;;;16.23;4.22;;;;;;;1.38;100.00;97746.00;2138171;83;20972;-62
2022/01/06 06:03:27;;;;;;;16.10;4.10;;;;;;;1.38;100.00;97745.17;2138302;83;21502;-62
2022/01/06 06:06:27;;;;;;;21.20;4.55;;;;;;;1.38;100.00;97743.42;2110593;83;21039;-62
2022/01/06 06:09:27;;;;;;;14.07;3.75;;;;;;;1.38;100.00;97751.63;2138158;83;21083;-62
2022/01/06 06:12:28;;;;;;;19.00;4.42;;;;;;;1.35;100.00;97752.59;2137637;83;20989;-61
2022/01/06 06:15:34;;;;;;;18.75;4.08;;;;;;;1.36;100.00;97751.67;2137801;83;21613;-62
2022/01/06 06:18:31;;;;;;;16.57;3.87;;;;;;;1.36;100.00;97760.71;2110468;83;21004;-62
2022/01/06 06:21:31;;;;;;;16.70;4.20;;;;;;;1.38;100.00;97771.84;2138027;83;21494;-62
2022/01/06 06:24:33;;;;;;;19.55;4.10;;;;;;;1.42;100.00;97772.55;2138036;83;20969;-61
2022/01/06 06:27:33;;;;;;;15.63;3.77;;;;;;;1.43;100.00;97776.81;2138400;83;21007;-61
2022/01/06 06:30:34;;;;;;;17.87;4.40;;;;;;;1.43;100.00;97779.86;2138139;83;20968;-62
2022/01/06 06:33:34;;;;;;;15.30;4.10;;;;;;;1.41;100.00;97779.93;2137936;83;21510;-62
2022/01/06 06:36:35;;;;;;;15.03;3.55;;;;;;;1.41;100.00;97787.68;2137753;83;21519;-61
2022/01/06 06:39:35;;;;;;;20.27;4.35;;;;;;;1.40;100.00;97799.38;2138287;83;20952;-62
2022/01/06 06:42:36;;;;;;;16.95;4.50;;;;;;;1.38;100.00;97798.15;2138235;83;20945;-61
2022/01/06 06:45:37;;;;;;;16.00;4.47;;;;;;;1.35;100.00;97804.27;2138076;83;21001;-62
2022/01/06 06:48:37;;;;;;;16.57;4.30;;;;;;;1.35;100.00;97807.28;2138047;83;21056;-61
2022/01/06 06:51:38;;;;;;;22.17;4.72;;;;;;;1.37;100.00;97811.96;2138126;83;21499;-61
2022/01/06 06:54:38;;;;;;;16.60;4.37;;;;;;;1.38;100.00;97831.73;2137927;83;21079;-61
2022/01/06 06:57:39;;;;;;;26.75;8.55;;;;;;;1.41;100.00;97816.54;2138183;83;20991;-62
2022/01/06 07:00:41;;;;;;;27.55;8.18;;;;;;;1.43;100.00;97810.88;2138265;83;21059;-61
2022/01/06 07:03:42;;;;;;;18.05;4.85;;;;;;;1.45;100.00;97820.69;2110381;83;21091;-62
2022/01/06 07:06:42;;;;;;;26.20;6.58;;;;;;;1.44;100.00;97840.96;2138221;83;21000;-62
2022/01/06 07:09:43;;;;;;;19.77;4.60;;;;;;;1.43;100.00;97843.17;2137979;83;21067;-62
2022/01/06 07:12:43;;;;;;;22.35;5.65;;;;;;;1.43;100.00;97848.34;2137796;83;21015;-61
2022/01/06 07:15:44;;;;;;;19.15;4.40;;;;;;;1.45;100.00;97837.48;2138161;83;21523;-62
2022/01/06 07:18:44;;;;;;;20.20;4.65;;;;;;;1.46;100.00;97836.13;2138059;83;21060;-62
2022/01/06 07:21:45;;;;;;;19.92;5.28;;;;;;;1.47;100.00;97853.33;2138122;83;20998;-62
2022/01/06 07:24:45;;;;;;;19.27;4.87;;;;;;;1.50;100.00;97857.08;2138351;83;20985;-61
2022/01/06 07:27:46;;;;;;;19.75;5.15;;;;;;;1.54;100.00;97860.39;2138059;83;21008;-62
2022/01/06 07:30:46;;;;;;;20.85;4.95;;;;;;;1.57;100.00;97864.14;2137873;83;21550;-62
2022/01/06 07:33:47;;;;;;;18.25;4.28;;;;;;;1.58;100.00;97868.86;2138215;83;21020;-62
2022/01/06 07:36:48;;;;;;;23.22;5.70;;;;;;;1.59;100.00;97869.25;2138053;83;21019;-62
2022/01/06 07:39:48;;;;;;;18.20;4.70;;;;;;;1.60;100.00;97870.94;2138182;83;20984;-62
2022/01/06 07:42:48;;;;;;;17.60;4.47;;;;;;;1.61;100.00;97875.19;2138003;83;21015;-62
2022/01/06 07:45:49;;;;;;;17.57;4.30;;;;;;;1.62;100.00;97876.88;2138051;83;21480;-61
2022/01/06 07:51:54;;;;;;;21.23;5.10;;;;;;;1.55;100.00;97868.09;2110132;83;21048;-62
2022/01/06 07:54:54;;;;;;;18.77;5.15;;;;;;;1.51;100.00;97875.56;2110036;83;21088;-62
2022/01/06 07:57:55;;;;;;;20.88;5.40;;;;;;;1.51;100.00;97873.45;2137955;83;21578;-62
2022/01/06 08:00:56;;;;;;;25.10;7.53;;;;;;;1.46;100.00;97872.31;2138107;83;20988;-62
2022/01/06 08:03:57;;;;;;;29.60;9.65;;;;;;;1.38;100.00;97877.79;2138182;83;21542;-62
2022/01/06 08:06:57;;;;;;;30.12;9.33;;;;;;;1.34;100.00;97872.81;2138188;83;21051;-62
2022/01/06 08:09:58;;;;;;;24.23;7.67;;;;;;;1.29;100.00;97874.25;2138136;83;20989;-62
2022/01/06 08:12:58;;;;;;;24.52;7.50;;;;;;;1.29;100.00;97877.30;2142302;83;21004;-62
2022/01/06 08:15:58;;;;;;;22.07;6.67;;;;;;;1.19;100.00;97878.09;2144771;83;21490;-62
2022/01/06 08:18:59;;;;;;;25.48;7.03;;;;;;;1.08;100.00;97884.98;2144743;83;20999;-62
2022/01/06 08:22:00;;;;;;;26.95;7.95;;;;;;;1.03;100.00;97888.16;2144968;83;21023;-62
2022/01/06 08:25:00;;;;;;;32.78;12.43;;;;;;;0.99;100.00;97888.75;2145107;83;21042;-62
2022/01/06 08:28:01;;;;;;;28.92;10.20;;;;;;;1.00;100.00;97885.70;2144622;83;20992;-62
2022/01/06 08:31:01;;;;;;;35.30;11.83;;;;;;;0.99;100.00;97893.91;2154798;83;21545;-62
2022/01/06 08:34:02;;;;;;;29.75;9.50;;;;;;;1.02;100.00;97893.80;2134673;83;21080;-62
2022/01/06 08:37:03;;;;;;;29.15;9.53;;;;;;;1.08;100.00;97900.91;2134890;83;21080;-62
2022/01/06 08:40:03;;;;;;;25.17;7.55;;;;;;;1.15;100.00;97899.34;2135049;83;21036;-62
2022/01/06 08:43:04;;;;;;;31.15;9.95;;;;;;;1.20;100.00;97894.83;2134657;83;21004;-62
2022/01/06 08:46:04;;;;;;;36.05;11.60;;;;;;;1.29;100.00;97900.55;2134833;83;20996;-62
2022/01/06 08:49:06;;;;;;;33.73;10.00;;;;;;;1.37;100.00;97907.11;2154634;83;20973;-62
2022/01/06 08:52:06;;;;;;;33.65;9.90;;;;;;;1.46;100.00;97905.08;2135271;83;21065;-62
2022/01/06 08:55:07;;;;;;;27.10;9.23;;;;;;;1.52;100.00;97914.73;2134613;83;21087;-62
2022/01/06 08:58:08;;;;;;;30.35;10.53;;;;;;;1.51;100.00;97919.97;2134844;83;21088;-62
2022/01/06 09:01:08;;;;;;;26.20;7.87;;;;;;;1.48;100.00;97903.26;2154958;83;21478;-62
2022/01/06 09:04:09;;;;;;;22.07;6.62;;;;;;;1.57;100.00;97906.80;2135167;83;21092;-61
2022/01/06 09:07:10;;;;;;;24.52;7.85;;;;;;;1.67;100.00;97921.50;2144749;83;21031;-62
2022/01/06 09:10:10;;;;;;;21.37;6.65;;;;;;;1.72;100.00;97923.44;2145055;83;20983;-62
2022/01/06 09:13:11;;;;;;;26.15;7.33;;;;;;;1.73;100.00;97903.98;2144405;83;21023;-62
2022/01/06 09:16:11;;;;;;;22.85;6.62;;;;;;;1.84;100.00;97903.56;2144585;83;21563;-62
2022/01/06 09:19:13;;;;;;;23.75;8.00;;;;;;;1.86;100.00;97919.02;2145194;83;20991;-62
2022/01/06 09:22:13;;;;;;;20.68;6.55;;;;;;;1.87;100.00;97912.48;2144768;83;21070;-62
2022/01/06 09:25:13;;;;;;;20.60;5.55;;;;;;;1.83;100.00;97936.78;2144980;83;20983;-62
2022/01/06 09:28:14;;;;;;;19.85;5.20;;;;;;;1.74;100.00;97919.06;2144822;83;20992;-62
2022/01/06 09:31:15;;;;;;;19.98;5.00;;;;;;;1.69;100.00;97928.73;2144939;83;21519;-62
2022/01/06 09:34:15;;;;;;;23.92;5.33;;;;;;;1.59;100.00;97940.34;2144879;83;21035;-62
2022/01/06 09:37:17;;;;;;;18.23;5.20;;;;;;;1.51;100.00;97958.73;2144975;83;20979;-62
2022/01/06 09:40:18;;;;;;;16.10;4.25;;;;;;;1.36;100.00;97976.47;2145063;83;21583;-62
2022/01/06 09:43:18;;;;;;;16.55;4.40;;;;;;;1.16;100.00;97983.67;2145044;83;21007;-62
2022/01/06 09:46:20;;;;;;;11.85;3.72;;;;;;;1.03;100.00;97977.27;2144971;83;21030;-62
2022/01/06 09:49:20;;;;;;;13.77;3.80;;;;;;;1.00;100.00;98004.50;2144964;83;21103;-62
2022/01/06 09:52:21;;;;;;;11.35;2.98;;;;;;;1.05;100.00;97985.82;2144766;83;21499;-62
2022/01/06 09:55:21;;;;;;;12.35;2.80;;;;;;;1.06;100.00;97997.81;2144892;83;21010;-62
2022/01/06 09:58:22;;;;;;;12.98;3.40;;;;;;;1.09;100.00;97999.45;2144878;83;21039;-62
2022/01/06 10:01:23;;;;;;;14.23;3.47;;;;;;;1.08;100.00;98000.34;2145001;83;21058;-62
2022/01/06 10:04:27;;;;;;;8.17;2.67;;;;;;;1.04;100.00;98007.38;2144964;83;21135;-62
2022/01/06 10:07:26;;;;;;;12.95;2.95;;;;;;;1.00;100.00;97995.00;2118769;83;20992;-62
2022/01/06 10:10:27;;;;;;;10.82;3.15;;;;;;;0.97;100.00;98010.61;2144746;83;21003;-62
2022/01/06 10:13:31;;;;;;;9.08;2.75;;;;;;;0.94;100.00;98054.62;2144732;83;21498;-62
2022/01/06 10:16:29;;;;;;;12.85;3.10;;;;;;;0.94;100.00;98030.55;2118724;83;21052;-61
2022/01/06 10:19:30;;;;;;;13.93;3.58;;;;;;;0.85;100.00;98049.78;2144783;83;21480;-61
2022/01/06 10:22:32;;;;;;;11.33;2.92;;;;;;;0.81;100.00;98038.70;2145230;83;21571;-62
2022/01/06 10:25:33;;;;;;;13.98;3.30;;;;;;;0.77;100.00;98042.28;2144978;83;21059;-62
2022/01/06 10:28:35;;;;;;;12.82;3.02;;;;;;;0.79;100.00;98029.31;2144963;83;21052;-62
2022/01/06 10:31:36;;;;;;;14.45;3.72;;;;;;;0.81;100.00;98042.58;2144989;83;21068;-62
2022/01/06 10:34:36;;;;;;;15.00;3.45;;;;;;;0.88;100.00;98047.52;2144859;83;21004;-62
2022/01/06 10:37:40;;;;;;;15.55;3.70;;;;;;;0.94;100.00;98050.75;2144805;83;21150;-61
2022/01/06 10:40:43;;;;;;;13.13;3.37;;;;;;;0.98;100.00;98057.50;2118541;83;21000;-62
2022/01/06 10:43:43;;;;;;;14.80;3.65;;;;;;;1.02;100.00;98051.33;2144967;83;21095;-61
2022/01/06 10:46:44;;;;;;;13.78;3.70;;;;;;;0.92;100.00;98052.55;2144916;83;21015;-62
2022/01/06 10:49:44;;;;;;;10.45;3.10;;;;;;;0.93;100.00;98052.09;2144941;83;21095;-62
2022/01/06 10:52:45;;;;;;;19.40;4.08;;;;;;;0.92;100.00;98051.27;2144854;83;20979;-62
2022/01/06 10:55:46;;;;;;;18.32;3.98;;;;;;;0.92;100.00;98049.97;2144366;83;21079;-61
2022/01/06 10:58:47;;;;;;;14.23;3.40;;;;;;;0.88;100.00;98056.13;2144715;83;21024;-62
2022/01/06 11:01:47;;;;;;;9.03;3.10;;;;;;;0.80;100.00;98077.48;2144936;83;20956;-61
2022/01/06 11:04:48;;;;;;;14.25;3.50;;;;;;;0.72;100.00;98075.59;2145056;83;20961;-62
2022/01/06 11:07:48;;;;;;;14.55;3.70;;;;;;;0.68;100.00;98078.73;2144642;83;21103;-61
2022/01/06 11:11:02;;;;;;;13.00;3.45;;;;;;;0.75;100.00;98096.14;2144719;83;21035;-61
2022/01/06 11:13:51;;;;;;;11.83;3.15;;;;;;;0.77;100.00;98108.11;2112791;83;21020;-61
2022/01/06 11:16:52;;;;;;;14.78;3.30;;;;;;;0.78;100.00;98090.45;2137787;83;21028;-62
2022/01/06 11:19:52;;;;;;;11.75;3.02;;;;;;;0.78;100.00;98087.86;2137961;83;21551;-62
2022/01/06 11:22:53;;;;;;;12.80;3.90;;;;;;;0.86;100.00;98092.76;2137974;83;21068;-61
2022/01/06 11:25:54;;;;;;;13.15;3.20;;;;;;;0.84;100.00;98113.47;2138132;83;20996;-62
2022/01/06 11:28:54;;;;;;;16.50;3.60;;;;;;;0.80;100.00;98093.80;2138188;83;21027;-62
2022/01/06 11:31:55;;;;;;;10.75;3.05;;;;;;;0.77;100.00;98093.91;2138048;83;21024;-61
2022/01/06 11:34:56;;;;;;;13.32;3.08;;;;;;;0.76;100.00;98105.58;2137939;83;21552;-62
2022/01/06 11:37:56;;;;;;;10.58;2.92;;;;;;;0.64;100.00;98102.50;2138102;83;20988;-62
2022/01/06 11:40:57;;;;;;;9.30;2.40;;;;;;;0.58;100.00;98125.94;2137880;83;21119;-62
2022/01/06 11:43:58;;;;;;;11.45;2.75;;;;;;;0.55;100.00;98150.98;2138085;83;21019;-61
2022/01/06 11:46:59;;;;;;;10.48;3.22;;;;;;;0.48;100.00;98121.96;2137822;83;21515;-61
2022/01/06 11:49:59;;;;;;;11.93;3.42;;;;;;;0.43;100.00;98134.15;2138229;83;20964;-62
2022/01/06 11:53:00;;;;;;;15.38;3.45;;;;;;;0.40;100.00;98136.83;2138282;83;20984;-62
2022/01/06 11:56:00;;;;;;;12.55;3.45;;;;;;;0.30;100.00;98144.00;2138031;83;20992;-62
2022/01/06 11:59:01;;;;;;;12.90;3.45;;;;;;;0.19;100.00;98144.34;2138183;83;20995;-62
2022/01/06 12:02:02;;;;;;;14.87;3.80;;;;;;;0.10;100.00;98136.86;2138103;83;21466;-62
2022/01/06 12:05:03;;;;;;;13.40;3.83;;;;;;;0.01;100.00;98152.16;2138162;83;21039;-61
2022/01/06 12:08:03;;;;;;;16.52;4.25;;;;;;;-0.01;100.00;98145.76;2137971;83;21110;-62
2022/01/06 12:11:04;;;;;;;13.85;3.45;;;;;;;-0.02;100.00;98153.09;2138005;83;20984;-61
2022/01/06 12:14:04;;;;;;;12.73;3.52;;;;;;;-0.08;100.00;98174.36;2137727;83;21044;-61
2022/01/06 12:17:05;;;;;;;13.70;3.70;;;;;;;-0.27;100.00;98172.74;2137997;83;21467;-61
2022/01/06 12:20:06;;;;;;;13.60;3.70;;;;;;;-0.46;100.00;98170.66;2138028;83;21020;-62
2022/01/06 12:23:07;;;;;;;14.50;3.23;;;;;;;-0.63;100.00;98193.42;2138449;83;20988;-61
2022/01/06 12:26:09;;;;;;;13.70;3.40;;;;;;;-0.75;100.00;98219.92;2137873;83;20996;-61
2022/01/06 12:29:09;;;;;;;15.58;3.87;;;;;;;-0.83;100.00;98211.53;2138342;83;21535;-61
2022/01/06 12:32:11;;;;;;;14.65;3.83;;;;;;;-0.86;100.00;98233.50;2138190;83;21040;-61
2022/01/06 12:35:11;;;;;;;16.52;4.03;;;;;;;-0.86;100.00;98209.03;2138394;83;21047;-62
2022/01/06 12:38:12;;;;;;;12.73;3.60;;;;;;;-0.92;100.00;98228.47;2138248;83;21499;-61
2022/01/06 12:41:12;;;;;;;13.93;3.75;;;;;;;-0.91;100.00;98236.16;2138602;83;20976;-61
2022/01/06 12:44:13;;;;;;;17.45;3.92;;;;;;;-0.79;100.00;98227.31;2138387;83;20980;-61
2022/01/06 12:47:13;;;;;;;17.50;4.20;;;;;;;-0.69;100.00;98226.62;2138333;83;20989;-61
2022/01/06 12:50:14;;;;;;;15.55;4.03;;;;;;;-0.63;100.00;98242.36;2138077;83;21048;-61
2022/01/06 12:53:15;;;;;;;18.32;4.30;;;;;;;-0.67;100.00;98258.80;2138341;83;21517;-61
2022/01/06 12:56:16;;;;;;;17.62;3.83;;;;;;;-0.64;100.00;98254.86;2137739;83;21071;-61
2022/01/06 12:59:16;;;;;;;16.03;4.10;;;;;;;-0.68;100.00;98262.25;2138039;83;20984;-61
2022/01/06 13:02:17;;;;;;;16.25;3.62;;;;;;;-0.74;100.00;98285.14;2137814;83;21075;-62
2022/01/06 13:05:18;;;;;;;14.90;3.45;;;;;;;-0.81;100.00;98279.28;2138063;83;20999;-61
2022/01/06 13:08:18;;;;;;;9.90;2.75;;;;;;;-0.85;100.00;98285.83;2138190;83;21028;-61
2022/01/06 13:11:19;;;;;;;11.90;2.80;;;;;;;-0.81;100.00;98308.06;2138190;83;20972;-61
2022/01/06 13:14:20;;;;;;;12.03;3.15;;;;;;;-0.93;100.00;98342.67;2138152;83;20997;-61
2022/01/06 13:17:22;;;;;;;14.33;3.35;;;;;;;-0.97;100.00;98341.03;2137869;83;21067;-61
2022/01/06 13:20:24;;;;;;;11.08;2.80;;;;;;;-1.07;100.00;98337.36;2138533;83;21527;-61
2022/01/06 13:26:30;;;;;;;10.08;2.33;;;;;;;-1.18;100.00;98341.89;2110457;83;21504;-61
2022/01/06 13:29:29;;;;;;;11.70;2.55;;;;;;;-1.21;100.00;98341.95;2110313;83;21055;-61
2022/01/06 13:32:30;;;;;;;11.45;2.47;;;;;;;-1.26;100.00;98347.66;2138296;83;20977;-61
2022/01/06 13:35:31;;;;;;;8.20;2.20;;;;;;;-1.26;100.00;98347.66;2138113;83;21558;-61
2022/01/06 13:38:31;;;;;;;13.80;2.37;;;;;;;-1.28;100.00;98335.24;2138040;83;21502;-61
2022/01/06 13:41:33;;;;;;;12.82;2.50;;;;;;;-1.20;100.00;98347.97;2138126;83;21582;-61
2022/01/06 13:44:33;;;;;;;11.57;2.50;;;;;;;-1.05;100.00;98361.36;2138209;83;21088;-61
2022/01/06 13:47:49;;;;;;;;;;;;;;;-0.95;100.00;98359.86;2112670;83;21028;-61
2022/01/06 13:53:42;;;;;;;12.95;3.08;;;;;;;-1.03;100.00;98379.77;2110540;83;21086;-61
2022/01/06 13:56:42;;;;;;;16.50;3.37;;;;;;;-1.11;100.00;98381.22;2138225;83;21040;-61
2022/01/06 13:59:43;;;;;;;16.82;3.50;;;;;;;-1.24;100.00;98390.92;2138157;83;21511;-61
2022/01/06 14:02:44;;;;;;;16.12;3.17;;;;;;;-1.31;100.00;98404.34;2138017;83;20999;-61
2022/01/06 14:05:44;;;;;;;18.20;3.83;;;;;;;-1.36;100.00;98416.47;2138129;83;21011;-61
2022/01/06 14:08:45;;;;;;;20.35;3.90;;;;;;;-1.39;100.00;98403.67;2138068;83;21019;-61
2022/01/06 14:11:45;;;;;;;14.98;3.10;;;;;;;-1.43;100.00;98422.61;2138131;83;21517;-61
2022/01/06 14:14:46;;;;;;;12.20;2.70;;;;;;;-1.47;100.00;98446.69;2142659;83;21058;-61
2022/01/06 14:17:47;;;;;;;12.58;2.85;;;;;;;-1.49;100.00;98436.88;2144539;83;21306;-61
2022/01/06 14:20:50;;;;;;;14.68;2.95;;;;;;;-1.51;100.00;98455.34;2144980;83;21043;-61
2022/01/06 14:23:51;;;;;;;14.78;3.05;;;;;;;-1.54;100.00;98452.83;2144995;83;21052;-61
2022/01/06 14:26:51;;;;;;;15.43;3.35;;;;;;;-1.69;100.00;98463.80;2144617;83;21078;-61